Time;durP1;ratioP1;P1;durP2;ratioP2;P2;SDS_P1;SDS_P2;PMS_P1;PMS_P2;Temp;Humidity;BMP_temperature;BMP_pressure;BME280_temperature;BME280_humidity;BME280_pressure;Samples;Min_cycle;Max_cycle;Signal;HPM_P1;HPM_P2
2024/02/25 00:00:22;;;;;;;3.55;2.10;;;2.80;99.90;;;;;;5033160;28;20124;-68
2024/02/25 00:02:47;;;;;;;3.45;1.90;;;2.80;99.90;;;;;;5033254;28;20026;-67
2024/02/25 00:05:13;;;;;;;8.10;3.03;;;2.90;99.90;;;;;;5033155;28;20040;-67
2024/02/25 00:07:39;;;;;;;3.42;2.20;;;2.90;99.90;;;;;;5032831;28;20499;-68
2024/02/25 00:10:06;;;;;;;3.97;2.35;;;2.90;99.90;;;;;;5033008;28;20033;-67
2024/02/25 00:12:32;;;;;;;3.40;2.00;;;2.90;99.90;;;;;;5032711;28;20030;-67
2024/02/25 00:14:58;;;;;;;2.53;2.20;;;3.00;99.90;;;;;;5032914;28;20408;-67
2024/02/25 00:17:24;;;;;;;5.55;2.53;;;3.00;99.90;;;;;;5033158;28;20036;-67
2024/02/25 00:19:49;;;;;;;3.15;2.05;;;3.10;99.90;;;;;;5033137;28;20033;-67
2024/02/25 00:22:15;;;;;;;4.80;2.20;;;3.10;99.90;;;;;;5032818;28;20471;-67
2024/02/25 00:24:40;;;;;;;3.03;1.73;;;3.20;99.90;;;;;;5032400;28;20120;-67
2024/02/25 00:27:06;;;;;;;2.42;1.75;;;3.30;99.90;;;;;;5032100;28;20100;-67
2024/02/25 00:29:32;;;;;;;3.70;1.60;;;3.40;99.90;;;;;;5032817;28;20039;-68
2024/02/25 00:31:58;;;;;;;2.88;1.77;;;3.50;99.90;;;;;;5032743;28;20034;-67
2024/02/25 00:34:24;;;;;;;6.05;1.90;;;3.60;99.90;;;;;;5033010;28;20025;-68
2024/02/25 00:36:49;;;;;;;4.82;1.98;;;3.60;99.90;;;;;;5036535;28;20034;-67
2024/02/25 00:39:16;;;;;;;3.40;1.85;;;3.60;99.90;;;;;;5035932;28;20095;-68
2024/02/25 00:41:43;;;;;;;3.28;1.95;;;3.60;99.90;;;;;;5036415;28;20480;-67
2024/02/25 00:44:09;;;;;;;6.68;1.92;;;3.60;99.90;;;;;;5036385;28;20475;-67
2024/02/25 00:46:34;;;;;;;3.45;1.83;;;3.60;99.90;;;;;;5036286;28;20045;-68
2024/02/25 00:49:00;;;;;;;2.83;2.00;;;3.50;99.90;;;;;;5035942;28;20037;-67
2024/02/25 00:51:26;;;;;;;7.75;1.73;;;3.50;99.90;;;;;;5036272;28;20025;-68
2024/02/25 00:53:52;;;;;;;4.80;2.15;;;3.50;99.90;;;;;;5036291;28;20029;-67
2024/02/25 00:56:17;;;;;;;2.20;1.80;;;3.40;99.90;;;;;;5036039;28;20033;-67
2024/02/25 00:58:43;;;;;;;3.67;1.75;;;3.40;99.90;;;;;;5036093;28;20040;-68
2024/02/25 01:01:16;;;;;;;5.70;2.35;;;3.30;99.90;;;;;;5035976;28;20037;-67
2024/02/25 01:03:42;;;;;;;;;;;3.40;99.90;;;;;;5036248;28;20120;-69
2024/02/25 01:06:08;;;;;;;3.10;2.10;;;3.50;99.90;;;;;;5035873;28;19952;-69
2024/02/25 01:08:38;;;;;;;5.63;2.60;;;3.50;99.90;;;;;;5035611;28;20037;-68
2024/02/25 01:11:06;;;;;;;7.55;2.90;;;3.50;99.90;;;;;;5035746;28;20021;-69
2024/02/25 01:13:32;;;;;;;3.60;2.78;;;3.50;99.90;;;;;;5035769;28;20490;-68
2024/02/25 01:16:02;;;;;;;2.42;1.80;;;3.90;99.90;;;;;;5035770;28;20029;-68
2024/02/25 01:18:27;;;;;;;6.03;1.92;;;3.50;99.90;;;;;;5035664;28;20120;-68
2024/02/25 01:20:53;;;;;;;6.40;2.15;;;3.50;99.90;;;;;;5035692;28;20112;-68
2024/02/25 01:23:18;;;;;;;4.32;1.83;;;3.60;99.90;;;;;;5035763;28;20542;-68
2024/02/25 01:25:45;;;;;;;5.07;1.90;;;3.50;99.90;;;;;;5035397;28;20079;-68
2024/02/25 01:28:10;;;;;;;3.03;1.95;;;3.50;99.90;;;;;;5035092;28;20045;-67
2024/02/25 01:30:36;;;;;;;3.45;1.98;;;3.50;99.90;;;;;;5034913;28;20026;-68
2024/02/25 01:33:02;;;;;;;4.13;1.85;;;3.50;99.90;;;;;;5035334;28;20021;-68
2024/02/25 01:35:27;;;;;;;2.20;1.58;;;3.40;99.90;;;;;;5035357;28;20025;-68
2024/02/25 01:37:53;;;;;;;4.63;2.08;;;3.40;99.90;;;;;;5035310;28;20029;-68
2024/02/25 01:40:18;;;;;;;4.10;2.17;;;3.40;99.90;;;;;;5035229;28;20091;-68
2024/02/25 01:42:44;;;;;;;6.78;1.85;;;3.40;99.90;;;;;;5035103;28;20036;-69
2024/02/25 01:45:09;;;;;;;3.50;2.05;;;3.50;99.90;;;;;;5034767;28;20033;-69
2024/02/25 01:47:35;;;;;;;3.95;2.20;;;3.50;99.90;;;;;;5034863;28;20068;-68
2024/02/25 01:50:01;;;;;;;5.30;2.22;;;3.50;99.90;;;;;;5035124;28;20117;-68
2024/02/25 01:52:27;;;;;;;2.88;1.70;;;3.50;99.90;;;;;;5034521;28;20021;-68
2024/02/25 01:54:55;;;;;;;2.67;1.80;;;3.50;99.90;;;;;;5035018;28;20032;-68
2024/02/25 01:57:21;;;;;;;3.50;1.85;;;3.50;99.90;;;;;;5034901;28;20025;-68
2024/02/25 01:59:47;;;;;;;2.95;1.85;;;3.60;99.90;;;;;;5034765;28;20527;-68
2024/02/25 02:02:13;;;;;;;5.32;2.20;;;3.50;99.90;;;;;;5034817;28;20022;-68
2024/02/25 02:04:41;;;;;;;4.78;2.40;;;3.50;99.90;;;;;;5034795;28;20049;-68
2024/02/25 02:07:09;;;;;;;8.07;2.60;;;3.50;99.90;;;;;;5034627;28;20422;-69
2024/02/25 02:09:35;;;;;;;6.00;2.03;;;3.50;99.90;;;;;;5034580;28;20036;-68
2024/02/25 02:12:01;;;;;;;4.10;1.83;;;3.50;99.90;;;;;;5034728;28;20026;-68
2024/02/25 02:14:26;;;;;;;4.25;2.70;;;3.50;99.90;;;;;;5034663;28;20040;-69
2024/02/25 02:16:52;;;;;;;6.70;3.03;;;3.50;99.90;;;;;;5034181;28;20040;-68
2024/02/25 02:19:18;;;;;;;4.68;3.63;;;3.50;99.90;;;;;;5034385;28;20025;-69
2024/02/25 02:21:43;;;;;;;8.20;5.72;;;3.50;99.90;;;;;;5033949;28;20476;-69
2024/02/25 02:24:09;;;;;;;5.22;3.92;;;3.60;99.90;;;;;;5034356;28;20482;-68
2024/02/25 02:26:35;;;;;;;4.47;2.40;;;3.70;99.90;;;;;;5034148;28;20029;-68
2024/02/25 02:29:00;;;;;;;2.67;1.88;;;3.70;99.90;;;;;;5034021;28;20038;-68
2024/02/25 02:31:26;;;;;;;3.05;1.60;;;3.90;99.90;;;;;;5034320;28;20108;-68
2024/02/25 02:33:52;;;;;;;2.08;1.58;;;4.10;99.90;;;;;;5033819;28;20029;-68
2024/02/25 02:36:18;;;;;;;2.05;1.25;;;4.20;99.90;;;;;;5033693;28;20026;-68
2024/02/25 02:38:44;;;;;;;4.43;1.63;;;4.50;99.90;;;;;;5034113;28;20041;-68
2024/02/25 02:41:10;;;;;;;1.55;1.33;;;4.60;93.20;;;;;;5034107;28;20029;-68
2024/02/25 02:43:36;;;;;;;1.88;1.10;;;5.10;85.50;;;;;;5033708;28;20032;-68
2024/02/25 02:46:02;;;;;;;2.75;1.65;;;5.20;71.90;;;;;;5033638;28;20041;-68
2024/02/25 02:48:28;;;;;;;1.83;1.30;;;4.80;70.10;;;;;;5033878;28;20068;-68
2024/02/25 02:50:56;;;;;;;2.95;1.10;;;4.90;68.00;;;;;;5033739;28;20029;-68
2024/02/25 02:53:21;;;;;;;1.30;1.20;;;5.00;63.20;;;;;;5034060;28;20036;-68
2024/02/25 02:55:47;;;;;;;3.63;1.63;;;5.10;56.10;;;;;;5033773;28;20030;-68
2024/02/25 02:58:12;;;;;;;3.42;1.63;;;5.20;51.00;;;;;;5033399;28;20543;-68
2024/02/25 03:00:38;;;;;;;2.35;1.20;;;5.20;52.80;;;;;;5033779;28;20033;-68
2024/02/25 03:03:04;;;;;;;2.92;1.30;;;5.20;50.90;;;;;;5033316;28;20404;-68
2024/02/25 03:05:30;;;;;;;3.10;1.63;;;5.20;46.10;;;;;;5033677;28;20025;-69
2024/02/25 03:07:56;;;;;;;4.47;1.33;;;5.30;43.40;;;;;;5033367;28;20099;-68
2024/02/25 03:10:21;;;;;;;2.17;1.30;;;5.40;33.60;;;;;;5033736;28;20108;-68
2024/02/25 03:12:47;;;;;;;2.78;1.25;;;5.40;27.10;;;;;;5033524;28;20075;-68
2024/02/25 03:15:13;;;;;;;2.90;1.48;;;5.50;22.00;;;;;;5033124;28;20048;-68
2024/02/25 03:17:40;;;;;;;1.48;1.20;;;5.50;18.60;;;;;;5033487;28;20026;-69
2024/02/25 03:20:07;;;;;;;4.28;1.63;;;5.50;19.10;;;;;;5033150;28;20080;-68
2024/02/25 03:22:33;;;;;;;2.35;1.00;;;5.70;8.00;;;;;;5033502;28;20086;-68
2024/02/25 03:24:59;;;;;;;3.38;1.40;;;5.70;3.40;;;;;;5033530;28;20025;-69
2024/02/25 03:27:25;;;;;;;3.30;1.40;;;5.70;7.40;;;;;;5033192;28;20057;-68
2024/02/25 03:29:50;;;;;;;2.33;1.33;;;5.70;9.10;;;;;;5033597;28;20087;-68
2024/02/25 03:32:16;;;;;;;2.55;1.58;;;5.70;7.00;;;;;;5033311;28;20033;-69
2024/02/25 03:34:42;;;;;;;4.25;1.50;;;5.70;5.90;;;;;;5033190;28;20493;-69
2024/02/25 03:37:07;;;;;;;3.97;1.40;;;5.70;6.60;;;;;;5033294;28;20565;-68
2024/02/25 03:39:33;;;;;;;1.85;1.20;;;5.70;7.50;;;;;;5033096;28;20268;-69
2024/02/25 03:41:58;;;;;;;2.58;1.38;;;5.70;18.30;;;;;;5033210;28;20033;-69
2024/02/25 03:44:26;;;;;;;1.98;1.33;;;5.60;18.10;;;;;;5033306;28;20028;-68
2024/02/25 03:46:51;;;;;;;1.50;1.35;;;5.60;20.70;;;;;;5033217;28;20014;-68
2024/02/25 03:49:17;;;;;;;1.83;1.55;;;5.60;26.10;;;;;;5032797;28;20030;-69
2024/02/25 03:51:43;;;;;;;2.85;1.58;;;5.60;24.50;;;;;;5033080;28;20033;-69
2024/02/25 03:54:09;;;;;;;3.05;1.45;;;5.60;25.70;;;;;;5032758;28;20024;-69
2024/02/25 03:56:35;;;;;;;2.05;1.33;;;5.50;27.80;;;;;;5032698;28;20479;-68
2024/02/25 03:59:00;;;;;;;1.90;1.50;;;5.50;30.30;;;;;;5033143;28;20083;-68
2024/02/25 04:01:26;;;;;;;2.15;1.40;;;5.50;34.20;;;;;;5032692;28;20022;-69
2024/02/25 04:03:52;;;;;;;1.65;1.40;;;5.50;36.30;;;;;;5032781;28;20091;-68
2024/02/25 04:06:17;;;;;;;2.95;1.70;;;5.50;34.50;;;;;;5032994;28;20040;-68
2024/02/25 04:08:43;;;;;;;2.88;1.45;;;5.50;33.50;;;;;;5032608;28;20038;-68
2024/02/25 04:11:09;;;;;;;1.95;1.50;;;5.40;39.40;;;;;;5036142;28;20029;-69
2024/02/25 04:13:34;;;;;;;4.65;1.83;;;5.40;38.10;;;;;;5036943;28;20026;-68
2024/02/25 04:16:00;;;;;;;3.72;1.60;;;5.30;39.70;;;;;;5036902;28;20030;-68
2024/02/25 04:18:26;;;;;;;2.95;1.55;;;5.20;45.00;;;;;;5036906;28;20087;-69
2024/02/25 04:20:51;;;;;;;3.13;1.52;;;5.10;50.30;;;;;;5036684;28;20059;-68
2024/02/25 04:23:17;;;;;;;2.47;1.73;;;5.10;56.40;;;;;;5036205;28;20030;-68
2024/02/25 04:25:43;;;;;;;2.88;1.80;;;5.10;59.60;;;;;;5036627;28;20040;-68
2024/02/25 04:28:08;;;;;;;1.65;1.48;;;5.10;58.60;;;;;;5035927;28;20467;-69
2024/02/25 04:30:34;;;;;;;6.30;1.80;;;5.00;58.40;;;;;;5036412;28;20041;-68
2024/02/25 04:33:00;;;;;;;2.00;1.55;;;5.00;61.20;;;;;;5036531;28;20112;-68
2024/02/25 04:35:27;;;;;;;2.25;1.50;;;4.90;65.70;;;;;;5036472;28;20034;-68
2024/02/25 04:37:53;;;;;;;2.67;1.60;;;4.90;68.10;;;;;;5036050;28;20067;-68
2024/02/25 04:40:19;;;;;;;5.50;1.67;;;4.90;74.10;;;;;;5035937;28;20065;-69
2024/02/25 04:42:45;;;;;;;2.35;1.60;;;4.90;71.80;;;;;;5036293;28;20029;-68
2024/02/25 04:45:11;;;;;;;2.55;1.63;;;4.90;68.50;;;;;;5036223;28;20029;-68
2024/02/25 04:47:36;;;;;;;2.22;1.40;;;4.90;67.20;;;;;;5036130;28;20399;-68
2024/02/25 04:50:03;;;;;;;4.43;1.63;;;4.90;60.50;;;;;;5036169;28;20480;-68
2024/02/25 04:52:29;;;;;;;2.47;1.50;;;4.90;60.10;;;;;;5036090;28;20033;-68
2024/02/25 04:54:55;;;;;;;3.83;2.00;;;4.80;65.40;;;;;;5036231;28;20479;-68
2024/02/25 04:57:20;;;;;;;2.25;1.33;;;4.80;67.40;;;;;;5035752;28;20026;-68
2024/02/25 04:59:46;;;;;;;3.13;1.80;;;4.80;65.80;;;;;;5036030;28;20034;-68
2024/02/25 05:02:12;;;;;;;3.53;1.50;;;4.80;69.60;;;;;;5035694;28;20061;-68
2024/02/25 05:04:40;;;;;;;3.70;1.80;;;4.90;71.50;;;;;;5035920;28;20395;-68
2024/02/25 05:07:06;;;;;;;2.17;1.67;;;4.90;62.50;;;;;;5035816;28;20399;-68
2024/02/25 05:09:31;;;;;;;3.53;1.60;;;4.90;61.30;;;;;;5035840;28;20026;-68
2024/02/25 05:11:57;;;;;;;2.75;1.80;;;5.10;58.60;;;;;;5035807;28;20033;-68
2024/02/25 05:14:23;;;;;;;2.55;1.70;;;5.10;55.10;;;;;;5035804;28;20037;-68
2024/02/25 05:16:51;;;;;;;2.53;1.58;;;5.10;54.40;;;;;;5035266;28;20018;-68
2024/02/25 05:19:17;;;;;;;1.58;1.40;;;5.10;56.00;;;;;;5035507;28;20029;-68
2024/02/25 05:21:42;;;;;;;3.05;1.70;;;5.10;53.00;;;;;;5035206;28;20060;-67
2024/02/25 05:24:09;;;;;;;3.88;1.83;;;5.10;52.50;;;;;;5035232;28;20391;-69
2024/02/25 05:26:35;;;;;;;2.08;1.40;;;5.10;54.30;;;;;;5034929;28;20083;-68
2024/02/25 05:29:00;;;;;;;1.80;1.40;;;5.10;53.50;;;;;;5035111;28;20037;-69
2024/02/25 05:31:26;;;;;;;3.00;1.63;;;5.20;50.30;;;;;;5035452;28;20028;-68
2024/02/25 05:33:51;;;;;;;4.25;1.48;;;5.10;53.30;;;;;;5035085;28;20030;-68
2024/02/25 05:36:22;;;;;;;2.20;1.60;;;5.20;47.70;;;;;;5035338;28;20029;-68
2024/02/25 05:38:48;;;;;;;2.15;1.35;;;5.20;44.20;;;;;;5035309;28;20142;-68
2024/02/25 05:41:14;;;;;;;2.20;1.67;;;5.30;45.20;;;;;;5035284;28;20140;-68
2024/02/25 05:43:41;;;;;;;2.20;1.30;;;5.30;42.80;;;;;;5034859;28;20479;-68
2024/02/25 05:46:06;;;;;;;1.88;1.50;;;5.30;38.00;;;;;;5035212;28;20033;-68
2024/02/25 05:48:32;;;;;;;3.22;1.20;;;5.30;38.50;;;;;;5034893;28;20036;-67
2024/02/25 05:50:58;;;;;;;2.17;1.50;;;5.40;38.10;;;;;;5035118;28;20021;-69
2024/02/25 05:53:24;;;;;;;1.77;1.30;;;5.40;37.80;;;;;;5034814;28;20391;-68
2024/02/25 05:55:49;;;;;;;2.92;1.52;;;5.40;33.50;;;;;;5034970;28;20029;-68
2024/02/25 05:58:15;;;;;;;2.10;1.40;;;5.50;31.70;;;;;;5034940;28;20136;-68
2024/02/25 06:00:42;;;;;;;1.73;1.35;;;5.50;30.20;;;;;;5034539;28;20064;-68
2024/02/25 06:03:08;;;;;;;1.40;1.30;;;5.60;25.60;;;;;;5034877;28;20047;-68
2024/02/25 06:05:33;;;;;;;1.50;1.27;;;5.60;27.90;;;;;;5034872;28;20029;-68
2024/02/25 06:08:00;;;;;;;2.70;1.60;;;5.60;22.90;;;;;;5034629;28;20434;-69
2024/02/25 06:10:26;;;;;;;2.10;1.30;;;5.60;19.00;;;;;;5034833;28;20025;-68
2024/02/25 06:12:52;;;;;;;1.70;1.25;;;5.70;20.70;;;;;;5034600;28;20084;-69
2024/02/25 06:15:18;;;;;;;1.83;1.20;;;5.60;22.40;;;;;;5034537;28;20430;-68
2024/02/25 06:17:44;;;;;;;1.63;1.38;;;5.70;23.00;;;;;;5034454;28;20025;-68
2024/02/25 06:20:10;;;;;;;2.15;1.02;;;5.60;24.80;;;;;;5034519;28;20037;-68
2024/02/25 06:22:38;;;;;;;2.03;1.17;;;5.70;21.40;;;;;;5034385;28;20029;-68
2024/02/25 06:25:05;;;;;;;2.22;1.33;;;5.70;22.20;;;;;;5034287;28;20029;-68
2024/02/25 06:27:31;;;;;;;1.40;1.17;;;5.70;22.40;;;;;;5034018;28;20088;-68
2024/02/25 06:29:57;;;;;;;3.63;1.20;;;5.70;23.50;;;;;;5034420;28;20021;-68
2024/02/25 06:32:23;;;;;;;3.65;1.27;;;5.70;22.30;;;;;;5033570;28;20079;-68
2024/02/25 06:34:48;;;;;;;1.20;1.05;;;5.70;22.90;;;;;;5034196;28;20021;-68
2024/02/25 06:37:14;;;;;;;2.15;1.10;;;5.70;24.30;;;;;;5034188;28;20423;-69
2024/02/25 06:39:40;;;;;;;2.45;1.45;;;5.70;23.90;;;;;;5034203;28;20029;-68
2024/02/25 06:42:06;;;;;;;1.65;1.40;;;5.70;29.70;;;;;;5034109;28;20387;-68
2024/02/25 06:44:32;;;;;;;3.20;2.00;;;5.70;28.50;;;;;;5034109;28;20021;-68
2024/02/25 06:46:57;;;;;;;2.80;1.50;;;5.70;34.60;;;;;;5034157;28;20033;-68
2024/02/25 06:49:23;;;;;;;2.60;1.30;;;5.70;31.80;;;;;;5033371;28;20487;-69
2024/02/25 06:51:49;;;;;;;1.85;1.30;;;5.70;36.10;;;;;;5033902;28;20033;-68
2024/02/25 06:54:14;;;;;;;2.72;1.10;;;5.70;34.10;;;;;;5033896;28;20025;-68
2024/02/25 06:56:40;;;;;;;1.52;1.05;;;5.70;38.00;;;;;;5033746;28;20037;-68
2024/02/25 06:59:06;;;;;;;1.70;1.33;;;5.70;44.10;;;;;;5033792;28;20061;-68
2024/02/25 07:01:31;;;;;;;2.70;1.33;;;5.70;38.60;;;;;;5033769;28;20056;-68
2024/02/25 07:03:57;;;;;;;3.58;1.35;;;5.70;38.00;;;;;;5033787;28;20033;-68
2024/02/25 07:06:23;;;;;;;5.40;1.50;;;5.70;41.50;;;;;;5033610;28;20503;-69
2024/02/25 07:08:49;;;;;;;3.55;1.45;;;5.70;39.20;;;;;;5033407;28;20096;-68
2024/02/25 07:11:17;;;;;;;2.45;1.50;;;5.70;42.30;;;;;;5033697;28;20479;-68
2024/02/25 07:13:43;;;;;;;1.50;1.40;;;5.70;40.30;;;;;;5033636;28;20110;-68
2024/02/25 07:16:08;;;;;;;2.03;1.33;;;5.70;43.00;;;;;;5033576;28;20021;-68
2024/02/25 07:18:34;;;;;;;1.70;1.38;;;5.70;44.20;;;;;;5033498;28;20060;-68
2024/02/25 07:21:00;;;;;;;2.17;1.58;;;5.80;39.80;;;;;;5033633;28;20039;-69
2024/02/25 07:23:25;;;;;;;2.38;1.55;;;5.90;37.90;;;;;;5033491;28;20075;-68
2024/02/25 07:25:51;;;;;;;3.75;1.50;;;6.00;37.80;;;;;;5033300;28;20108;-68
2024/02/25 07:28:16;;;;;;;3.05;1.20;;;6.10;34.50;;;;;;5033022;28;20454;-67
2024/02/25 07:30:42;;;;;;;2.35;1.60;;;6.10;27.90;;;;;;5033399;28;20475;-67
2024/02/25 07:33:09;;;;;;;2.20;1.52;;;6.10;25.70;;;;;;5032960;28;20021;-67
2024/02/25 07:35:35;;;;;;;1.85;1.48;;;6.20;28.00;;;;;;5033468;28;20030;-68
2024/02/25 07:38:01;;;;;;;3.42;1.58;;;6.20;26.40;;;;;;5033392;28;20546;-68
2024/02/25 07:40:26;;;;;;;1.60;1.30;;;6.20;18.50;;;;;;5033409;28;20048;-68
2024/02/25 07:42:52;;;;;;;3.03;1.58;;;6.30;16.90;;;;;;5032942;28;20087;-70
2024/02/25 07:45:19;;;;;;;6.13;2.22;;;6.40;5.30;;;;;;5036593;28;20040;-68
2024/02/25 07:47:44;;;;;;;1.77;1.55;;;6.40;9.20;;;;;;5037278;28;20407;-68
2024/02/25 07:50:11;;;;;;;1.88;1.70;;;6.40;5.60;;;;;;5037229;28;20033;-67
2024/02/25 07:52:36;;;;;;;3.35;1.88;;;6.60;8.90;;;;;;5037145;28;20025;-68
2024/02/25 07:55:03;;;;;;;2.13;1.55;;;6.80;1.00;;;;;;5037246;28;20021;-68
2024/02/25 07:57:33;;;;;;;2.28;1.70;;;6.80;1.00;;;;;;5037265;28;20534;-69
2024/02/25 07:59:58;;;;;;;1.95;1.70;;;6.90;1.00;;;;;;5037078;28;20368;-68
2024/02/25 08:02:24;;;;;;;3.75;2.08;;;7.00;1.00;;;;;;5037043;28;20032;-68
2024/02/25 08:04:49;;;;;;;1.80;1.45;;;6.90;1.00;;;;;;5036939;28;20502;-68
2024/02/25 08:07:15;;;;;;;2.85;1.55;;;6.90;1.00;;;;;;5036703;28;20482;-68
2024/02/25 08:09:41;;;;;;;2.63;1.90;;;6.90;1.00;;;;;;5036923;28;20076;-68
2024/02/25 08:12:06;;;;;;;2.03;1.38;;;6.90;1.00;;;;;;5036453;28;20030;-68
2024/02/25 08:14:33;;;;;;;2.13;1.58;;;6.80;1.00;;;;;;5036894;28;20121;-67
2024/02/25 08:16:58;;;;;;;2.78;2.05;;;6.70;1.00;;;;;;5036891;28;20475;-68
2024/02/25 08:19:24;;;;;;;4.88;2.10;;;6.70;1.00;;;;;;5036543;28;20044;-68
2024/02/25 08:21:49;;;;;;;2.47;1.60;;;6.60;1.00;;;;;;5036656;28;20557;-68
2024/02/25 08:24:17;;;;;;;2.45;1.90;;;6.70;1.00;;;;;;5036534;28;20113;-68
2024/02/25 08:26:43;;;;;;;4.22;1.73;;;6.80;1.00;;;;;;5036466;28;20092;-68
2024/02/25 08:29:09;;;;;;;2.45;1.58;;;6.80;1.00;;;;;;5036270;28;20025;-68
2024/02/25 08:31:34;;;;;;;3.92;1.60;;;6.90;1.00;;;;;;5036650;28;20120;-68
2024/02/25 08:34:00;;;;;;;2.03;1.60;;;6.90;1.00;;;;;;5036627;28;20383;-68
2024/02/25 08:36:25;;;;;;;2.33;1.52;;;7.00;1.00;;;;;;5036149;28;20033;-68
2024/02/25 08:38:51;;;;;;;2.38;1.30;;;7.00;1.00;;;;;;5036468;28;20033;-69
2024/02/25 08:41:17;;;;;;;2.10;1.58;;;7.00;1.00;;;;;;5036389;28;20476;-68
2024/02/25 08:43:42;;;;;;;2.25;1.55;;;7.10;1.00;;;;;;5036191;28;20038;-68
2024/02/25 08:46:08;;;;;;;1.77;1.25;;;7.10;1.00;;;;;;5036326;28;20084;-68
2024/02/25 08:48:33;;;;;;;1.90;1.30;;;7.10;1.00;;;;;;5036034;28;20446;-69
2024/02/25 08:50:59;;;;;;;3.45;1.75;;;7.20;1.00;;;;;;5036164;28;20030;-69
2024/02/25 08:53:25;;;;;;;3.35;1.98;;;7.20;1.00;;;;;;5036114;28;20033;-69
2024/02/25 08:55:51;;;;;;;3.20;2.10;;;7.30;1.00;;;;;;5035402;28;20048;-68
2024/02/25 08:58:16;;;;;;;3.15;1.58;;;7.50;1.00;;;;;;5035764;28;20021;-68
2024/02/25 09:00:44;;;;;;;2.13;1.70;;;7.40;1.00;;;;;;5036047;28;20032;-69
2024/02/25 09:03:11;;;;;;;1.65;1.45;;;7.40;1.00;;;;;;5036076;28;20056;-69
2024/02/25 09:05:37;;;;;;;2.30;1.38;;;7.50;1.00;;;;;;5035400;28;20030;-68
2024/02/25 09:08:03;;;;;;;2.15;1.40;;;7.50;1.00;;;;;;5035729;28;20499;-69
2024/02/25 09:10:29;;;;;;;1.40;1.30;;;7.60;1.00;;;;;;5035860;28;20030;-68
2024/02/25 09:12:56;;;;;;;1.10;1.00;;;7.70;1.00;;;;;;5035757;28;20554;-69
2024/02/25 09:15:22;;;;;;;2.35;1.13;;;7.60;1.00;;;;;;5035778;28;20028;-68
2024/02/25 09:17:47;;;;;;;1.98;1.00;;;7.60;1.00;;;;;;5035597;28;20478;-68
2024/02/25 09:20:13;;;;;;;1.95;1.10;;;7.90;1.00;;;;;;5035197;28;20030;-68
2024/02/25 09:22:39;;;;;;;2.22;0.75;;;7.70;1.00;;;;;;5035680;28;20038;-70
2024/02/25 09:25:05;;;;;;;1.52;1.10;;;7.70;1.00;;;;;;5035518;28;20491;-68
2024/02/25 09:27:30;;;;;;;1.05;0.90;;;7.80;1.00;;;;;;5035160;28;20103;-68
2024/02/25 09:29:56;;;;;;;1.27;1.00;;;7.80;1.00;;;;;;5035506;28;20017;-69
2024/02/25 09:32:23;;;;;;;1.73;1.20;;;8.00;1.00;;;;;;5035481;28;20037;-69
2024/02/25 09:34:48;;;;;;;1.58;0.90;;;8.10;1.00;;;;;;5035382;28;20129;-69
2024/02/25 09:37:14;;;;;;;1.35;1.00;;;8.40;1.00;;;;;;5034909;28;20065;-68
2024/02/25 09:39:40;;;;;;;2.72;1.20;;;8.70;99.90;;;;;;5035369;28;20120;-69
2024/02/25 09:42:06;;;;;;;1.52;1.05;;;8.70;99.90;;;;;;5035274;28;20024;-68
2024/02/25 09:44:35;;;;;;;1.00;0.90;;;8.80;99.90;;;;;;5034809;28;20396;-69
2024/02/25 09:47:01;;;;;;;1.17;0.93;;;8.70;99.90;;;;;;5035284;28;20095;-69
2024/02/25 09:49:28;;;;;;;2.42;1.15;;;8.60;99.90;;;;;;5034845;28;20036;-68
2024/02/25 09:51:54;;;;;;;4.82;1.15;;;8.60;99.90;;;;;;5034967;28;20018;-68
2024/02/25 09:54:20;;;;;;;1.25;1.00;;;8.50;99.90;;;;;;5034620;28;20027;-68
2024/02/25 09:56:49;;;;;;;1.90;0.77;;;8.40;99.90;;;;;;5035137;28;20024;-68
2024/02/25 09:59:16;;;;;;;0.80;0.80;;;8.20;99.90;;;;;;5034505;28;20048;-68
2024/02/25 10:01:45;;;;;;;1.85;1.08;;;8.10;99.90;;;;;;5034898;28;20502;-68
2024/02/25 10:04:11;;;;;;;2.22;0.70;;;8.20;1.00;;;;;;5034837;28;20029;-68
2024/02/25 10:06:38;;;;;;;1.35;0.90;;;8.10;99.90;;;;;;5034620;28;20031;-69
2024/02/25 10:09:04;;;;;;;1.90;0.80;;;8.10;1.00;;;;;;5033824;28;20075;-68
2024/02/25 10:11:30;;;;;;;1.42;0.80;;;8.20;1.00;;;;;;5034828;28;20085;-68
2024/02/25 10:13:56;;;;;;;1.52;0.90;;;8.40;1.00;;;;;;5034544;28;20029;-70
2024/02/25 10:16:22;;;;;;;2.45;1.13;;;8.30;1.00;;;;;;5034210;28;20037;-68
2024/02/25 10:18:50;;;;;;;4.38;1.30;;;8.40;99.90;;;;;;5034630;28;20487;-68
2024/02/25 10:21:16;;;;;;;1.52;0.90;;;8.20;99.90;;;;;;5034399;28;20391;-68
2024/02/25 10:23:42;;;;;;;1.60;0.90;;;8.30;99.90;;;;;;5034542;28;20026;-68
2024/02/25 10:26:13;;;;;;;0.88;0.77;;;8.30;99.90;;;;;;5034084;28;20098;-68
2024/02/25 10:28:38;;;;;;;1.05;0.95;;;8.30;99.90;;;;;;5033943;28;20115;-68
2024/02/25 10:31:05;;;;;;;1.13;0.80;;;8.20;99.90;;;;;;5034430;28;20029;-69
2024/02/25 10:33:31;;;;;;;1.45;0.70;;;8.40;99.90;;;;;;5034268;28;20498;-68
2024/02/25 10:36:08;;;;;;;1.00;0.80;;;8.40;99.90;;;;;;5034206;28;20033;-68
2024/02/25 10:38:38;;;;;;;2.10;1.05;;;8.30;99.90;;;;;;5034293;28;20484;-69
2024/02/25 10:41:06;;;;;;;2.28;0.98;;;8.40;99.90;;;;;;5033759;28;20025;-69
2024/02/25 10:43:34;;;;;;;2.47;1.00;;;8.60;99.90;;;;;;5033553;28;20036;-68
2024/02/25 10:46:13;;;;;;;0.90;0.90;;;8.40;99.90;;;;;;5034208;28;20476;-69
2024/02/25 10:48:39;;;;;;;1.60;0.80;;;8.40;99.90;;;;;;5033760;28;20022;-68
2024/02/25 10:51:05;;;;;;;1.90;0.93;;;8.60;99.90;;;;;;5033589;28;20444;-69
2024/02/25 10:53:32;;;;;;;1.30;0.80;;;8.70;99.90;;;;;;5034107;28;20026;-68
2024/02/25 10:55:59;;;;;;;0.65;0.60;;;8.70;99.90;;;;;;5033865;28;20037;-68
2024/02/25 10:58:28;;;;;;;0.82;0.60;;;8.70;99.90;;;;;;5033484;28;20088;-68
2024/02/25 11:00:54;;;;;;;1.65;0.90;;;8.80;99.90;;;;;;5033851;28;20095;-69
2024/02/25 11:03:21;;;;;;;1.00;0.60;;;9.00;99.90;;;;;;5033646;28;20459;-69
2024/02/25 11:05:47;;;;;;;0.95;0.85;;;9.00;34.10;;;;;;5033667;28;20124;-69
2024/02/25 11:08:26;;;;;;;1.63;0.80;;;9.00;55.20;;;;;;5033542;28;20511;-69
2024/02/25 11:10:57;;;;;;;1.98;1.05;;;9.00;6.30;;;;;;5033525;28;20025;-68
2024/02/25 11:13:24;;;;;;;2.95;1.10;;;9.10;1.00;;;;;;5033550;28;20415;-69
2024/02/25 11:15:49;;;;;;;0.77;0.73;;;9.20;1.00;;;;;;5033529;28;20022;-68
2024/02/25 11:18:25;;;;;;;2.15;0.63;;;9.20;99.90;;;;;;5033333;28;20438;-69
2024/02/25 11:21:03;;;;;;;1.27;0.60;;;9.20;1.00;;;;;;5033482;28;20052;-68
2024/02/25 11:23:42;;;;;;;1.13;0.88;;;9.50;99.90;;;;;;5033051;28;20021;-68
2024/02/25 11:26:37;;;;;;;1.08;0.70;;;9.90;99.90;;;;;;5033014;28;20041;-68
2024/02/25 11:32:01;;;;;;;1.92;0.80;;;10.40;1.00;;;;;;5111276;27;20369;-68
2024/02/25 11:34:29;;;;;;;2.25;0.80;;;10.30;99.90;;;;;;5111178;28;20024;-67
2024/02/25 11:36:58;;;;;;;1.50;0.88;;;10.10;1.00;;;;;;5111075;28;20397;-68
2024/02/25 11:39:26;;;;;;;0.95;0.80;;;9.90;99.90;;;;;;5111075;28;20107;-68
2024/02/25 11:41:56;;;;;;;2.03;0.80;;;10.00;99.90;;;;;;5111046;28;20042;-68
2024/02/25 11:44:25;;;;;;;1.70;0.63;;;9.80;99.90;;;;;;5111010;28;20016;-69
2024/02/25 11:46:55;;;;;;;1.60;0.70;;;9.80;1.00;;;;;;5111022;28;20024;-68
2024/02/25 11:49:22;;;;;;;0.68;0.68;;;9.80;99.90;;;;;;5110619;28;20102;-68
2024/02/25 11:51:47;;;;;;;2.28;0.93;;;9.70;99.90;;;;;;5110730;28;20056;-68
2024/02/25 11:54:13;;;;;;;1.30;0.70;;;9.70;99.90;;;;;;5110792;28;20067;-68
2024/02/25 11:56:39;;;;;;;1.13;0.70;;;9.70;1.00;;;;;;5110976;28;20028;-69
2024/02/25 11:59:06;;;;;;;1.52;0.85;;;9.80;1.00;;;;;;5110835;28;20111;-68
2024/02/25 12:01:33;;;;;;;1.92;0.63;;;9.80;99.90;;;;;;5110954;28;20027;-68
2024/02/25 12:03:59;;;;;;;1.38;0.80;;;10.00;99.90;;;;;;5110799;28;20110;-68
2024/02/25 12:06:25;;;;;;;0.98;0.80;;;10.10;99.90;;;;;;5110712;28;20162;-69
2024/02/25 12:08:50;;;;;;;2.50;0.95;;;10.00;1.00;;;;;;5110534;28;20031;-68
2024/02/25 12:11:16;;;;;;;2.35;0.70;;;9.70;2.00;;;;;;5110433;28;20046;-68
2024/02/25 12:13:44;;;;;;;2.28;0.75;;;9.90;1.00;;;;;;5110474;28;20020;-68
2024/02/25 12:16:11;;;;;;;0.70;0.70;;;9.80;1.00;;;;;;5110557;28;20385;-68
2024/02/25 12:18:37;;;;;;;0.70;0.70;;;9.80;1.00;;;;;;5110533;28;20024;-69
2024/02/25 12:21:03;;;;;;;1.02;0.90;;;9.80;72.70;;;;;;5110529;28;20035;-69
2024/02/25 12:23:31;;;;;;;1.35;0.80;;;9.70;1.00;;;;;;5110345;28;20509;-68
2024/02/25 12:26:04;;;;;;;1.33;0.80;;;9.90;95.70;;;;;;5110187;28;20035;-68
2024/02/25 12:28:37;;;;;;;;;;;10.00;99.90;;;;;;5110424;28;20028;-68
2024/02/25 12:31:06;;;;;;;1.48;0.80;;;9.90;99.90;;;;;;5109560;28;19938;-68
2024/02/25 12:33:32;;;;;;;1.70;0.80;;;9.80;99.90;;;;;;5109830;28;20043;-71
2024/02/25 12:35:58;;;;;;;2.17;0.95;;;9.70;85.10;;;;;;5089715;28;20032;-68
2024/02/25 12:38:23;;;;;;;1.60;0.60;;;9.60;8.60;;;;;;5089726;28;20039;-68
2024/02/25 12:40:51;;;;;;;1.27;0.82;;;9.60;1.00;;;;;;5089235;28;20021;-68
2024/02/25 12:43:18;;;;;;;3.08;1.27;;;9.60;1.00;;;;;;5076146;28;20031;-68
2024/02/25 12:45:44;;;;;;;1.52;0.90;;;9.40;1.00;;;;;;5076064;28;20025;-70
2024/02/25 12:48:10;;;;;;;1.05;0.80;;;9.10;99.90;;;;;;5075957;28;20028;-68
2024/02/25 12:50:35;;;;;;;1.48;0.75;;;8.70;1.00;;;;;;5075961;28;20020;-69
2024/02/25 12:53:02;;;;;;;3.25;0.82;;;8.90;1.00;;;;;;5076117;28;20024;-69
2024/02/25 12:55:28;;;;;;;1.50;0.90;;;9.50;32.90;;;;;;5075484;28;20434;-69
2024/02/25 12:57:54;;;;;;;1.98;1.10;;;9.80;99.90;;;;;;5075422;28;20427;-67